Cockrell Hill, Texas
Current Conditions -  °F | °C
As of 5:53 AM on Saturday 20 Dec 2014 (Local Time) from KRBD Reporting Station
Haze Haze  
Wind Chill:   Ceiling: 600
Heat Index:   Visibility: 6mi
Dew Point:   Wind: 6mph
Humidity: 86%   Direction: 360°N
Pressure: 30.2"   Gusts: NA
Location:  32.7371°N, 96.9045°W
Report Text: KRBD 201153Z 36005KT 6SM BR OVC006 08/06 A3020 RMK AO2 SLP228 70004 T00830061 10089 20083 53002
Loading
Personal Weather Stations






























Interactive Weather Map New forecast layout! Learn more

10-Day Weather Forecast

Advertisements
Track Severe Weather on mobile